Time;durP1;ratioP1;P1;durP2;ratioP2;P2;SDS_P1;SDS_P2;PMS_P1;PMS_P2;Temp;Humidity;BMP_temperature;BMP_pressure;BME280_temperature;BME280_humidity;BME280_pressure;Samples;Min_cycle;Max_cycle;Signal;HPM_P1;HPM_P2
2022/06/27 00:00:36;;;;;;;3.00;1.77;;;;;;;;;;5131974;27;20444;-86
2022/06/27 00:03:01;;;;;;;2.30;1.80;;;;;;;;;;5132365;27;20420;-83
2022/06/27 00:05:27;;;;;;;2.28;1.70;;;;;;;;;;5131911;27;20528;-82
2022/06/27 00:07:52;;;;;;;2.33;1.70;;;;;;;;;;5132610;27;20083;-84
2022/06/27 00:10:18;;;;;;;3.13;1.90;;;;;;;;;;5130629;27;20019;-83
2022/06/27 00:12:43;;;;;;;2.08;1.70;;;;;;;;;;5132062;27;20031;-85
2022/06/27 00:15:10;;;;;;;2.50;1.60;;;;;;;;;;5132001;27;20023;-85
2022/06/27 00:17:36;;;;;;;3.13;1.58;;;;;;;;;;5132048;27;20027;-83
2022/06/27 00:20:02;;;;;;;2.67;1.80;;;;;;;;;;5113562;27;20034;-84
2022/06/27 00:22:27;;;;;;;2.58;1.75;;;;;;;;;;5132057;27;20031;-85
2022/06/27 00:24:53;;;;;;;2.33;1.70;;;;;;;;;;5132079;27;20079;-85
2022/06/27 00:27:19;;;;;;;1.90;1.75;;;;;;;;;;5131826;27;20054;-85
2022/06/27 00:29:44;;;;;;;2.15;1.95;;;;;;;;;;5131701;27;20055;-82
2022/06/27 00:32:10;;;;;;;3.70;1.90;;;;;;;;;;5131848;27;20080;-84
2022/06/27 00:34:36;;;;;;;2.88;1.80;;;;;;;;;;5131788;27;20049;-85
2022/06/27 00:37:02;;;;;;;2.88;2.30;;;;;;;;;;5131215;27;20458;-84
2022/06/27 00:39:27;;;;;;;2.20;1.85;;;;;;;;;;5131937;27;20034;-83
2022/06/27 00:41:53;;;;;;;4.43;2.45;;;;;;;;;;5131452;27;20031;-82
2022/06/27 00:44:38;;;;;;;3.47;2.63;;;;;;;;;;5131881;27;20569;-84
2022/06/27 00:47:05;;;;;;;2.70;2.40;;;;;;;;;;5112018;28;20028;-84
2022/06/27 00:49:31;;;;;;;3.28;2.47;;;;;;;;;;5131586;28;20023;-84
2022/06/27 00:51:56;;;;;;;2.38;2.17;;;;;;;;;;5134078;27;20038;-84
2022/06/27 00:54:23;;;;;;;2.40;2.20;;;;;;;;;;5138197;27;20035;-82
2022/06/27 00:56:50;;;;;;;3.00;2.70;;;;;;;;;;5138287;27;20038;-81
2022/06/27 00:59:15;;;;;;;2.90;2.20;;;;;;;;;;5138280;27;20023;-87
2022/06/27 01:01:41;;;;;;;2.83;2.55;;;;;;;;;;5138295;27;20039;-83
2022/06/27 01:04:07;;;;;;;2.40;2.20;;;;;;;;;;5138228;27;20126;-82
2022/06/27 01:06:33;;;;;;;3.10;2.80;;;;;;;;;;5119911;27;20435;-84
2022/06/27 01:08:58;;;;;;;3.10;2.80;;;;;;;;;;5136983;27;20103;-84
2022/06/27 01:11:24;;;;;;;2.95;2.75;;;;;;;;;;5138461;27;20063;-84
2022/06/27 01:13:50;;;;;;;3.95;2.72;;;;;;;;;;5138290;27;20386;-84
2022/06/27 01:16:15;;;;;;;2.60;2.40;;;;;;;;;;5138143;27;20023;-83
2022/06/27 01:18:41;;;;;;;2.97;2.60;;;;;;;;;;5138440;27;20057;-85
2022/06/27 01:21:08;;;;;;;2.50;2.28;;;;;;;;;;5119737;27;20416;-82
2022/06/27 01:23:34;;;;;;;2.20;2.00;;;;;;;;;;5138270;27;22112;-87
2022/06/27 01:26:00;;;;;;;2.45;2.10;;;;;;;;;;5118778;27;20498;-86
2022/06/27 01:28:26;;;;;;;2.40;2.17;;;;;;;;;;5136503;27;20019;-83
2022/06/27 01:30:52;;;;;;;2.50;2.30;;;;;;;;;;5118605;27;20454;-83
2022/06/27 01:33:17;;;;;;;4.57;2.50;;;;;;;;;;5119106;27;20114;-83
2022/06/27 01:35:43;;;;;;;2.90;2.22;;;;;;;;;;5137752;27;20033;-84
2022/06/27 01:38:08;;;;;;;2.00;1.80;;;;;;;;;;5136778;27;20019;-86
2022/06/27 01:40:34;;;;;;;2.75;2.15;;;;;;;;;;5134041;27;20023;-83
2022/06/27 01:43:00;;;;;;;2.45;2.25;;;;;;;;;;5136753;27;20023;-85
2022/06/27 01:45:29;;;;;;;2.53;2.33;;;;;;;;;;5134421;27;20042;-83
2022/06/27 01:47:54;;;;;;;2.85;2.53;;;;;;;;;;5117933;27;20019;-85
2022/06/27 01:50:24;;;;;;;3.33;2.60;;;;;;;;;;5115983;27;20023;-85
2022/06/27 01:52:51;;;;;;;3.55;2.30;;;;;;;;;;5136964;27;20463;-85
2022/06/27 01:55:20;;;;;;;2.85;2.50;;;;;;;;;;5116819;27;20125;-84
2022/06/27 01:57:47;;;;;;;3.13;2.83;;;;;;;;;;5135831;27;20027;-84
2022/06/27 02:00:14;;;;;;;2.70;2.50;;;;;;;;;;5116031;27;20066;-85
2022/06/27 02:02:41;;;;;;;5.00;2.70;;;;;;;;;;5136752;27;20068;-86
2022/06/27 02:05:08;;;;;;;4.15;2.92;;;;;;;;;;5134633;27;20098;-86
2022/06/27 02:07:36;;;;;;;3.97;2.72;;;;;;;;;;5113820;27;20023;-84
2022/06/27 02:10:02;;;;;;;2.85;2.60;;;;;;;;;;5133684;27;20052;-84
2022/06/27 02:12:29;;;;;;;3.58;3.28;;;;;;;;;;5114474;27;20043;-85
2022/06/27 02:14:54;;;;;;;3.55;3.20;;;;;;;;;;5131947;27;20027;-82
2022/06/27 02:17:21;;;;;;;3.53;3.20;;;;;;;;;;5113546;27;20046;-83
2022/06/27 02:19:47;;;;;;;4.70;2.97;;;;;;;;;;5133638;27;20091;-82
2022/06/27 02:22:13;;;;;;;3.50;3.20;;;;;;;;;;5133467;27;20034;-84
2022/06/27 02:24:39;;;;;;;4.50;4.10;;;;;;;;;;5131913;27;20079;-84
2022/06/27 02:27:06;;;;;;;4.47;3.75;;;;;;;;;;5134212;27;20019;-85
2022/06/27 02:29:33;;;;;;;4.13;3.70;;;;;;;;;;5133825;27;20122;-83
2022/06/27 02:32:00;;;;;;;3.67;3.00;;;;;;;;;;5115762;27;20534;-85
2022/06/27 02:34:26;;;;;;;3.85;3.50;;;;;;;;;;5133870;27;20031;-84
2022/06/27 02:36:52;;;;;;;3.30;2.97;;;;;;;;;;5133886;27;20035;-81
2022/06/27 02:39:24;;;;;;;2.78;2.58;;;;;;;;;;5115235;27;20391;-82
2022/06/27 02:41:53;;;;;;;5.47;2.53;;;;;;;;;;5133767;27;20038;-85
2022/06/27 02:44:21;;;;;;;2.70;2.33;;;;;;;;;;5133687;27;20111;-85
2022/06/27 02:46:48;;;;;;;2.13;1.92;;;;;;;;;;5133706;27;20390;-82
2022/06/27 02:49:14;;;;;;;2.30;2.10;;;;;;;;;;5133620;27;20476;-82
2022/06/27 02:51:54;;;;;;;3.05;2.15;;;;;;;;;;5115083;27;20111;-83
2022/06/27 02:54:41;;;;;;;2.53;2.13;;;;;;;;;;5112381;27;20466;-81
2022/06/27 02:57:52;;;;;;;2.15;1.95;;;;;;;;;;5133326;27;20023;-83
2022/06/27 03:00:17;;;;;;;2.05;1.85;;;;;;;;;;5029911;28;20072;-84
2022/06/27 03:02:44;;;;;;;2.50;2.30;;;;;;;;;;5099992;27;20035;-84
2022/06/27 03:05:09;;;;;;;2.35;2.03;;;;;;;;;;5133618;27;20360;-83
2022/06/27 03:07:43;;;;;;;3.97;1.90;;;;;;;;;;5131755;27;20045;-82
2022/06/27 03:10:10;;;;;;;2.33;2.05;;;;;;;;;;5130938;27;20027;-85
2022/06/27 03:12:35;;;;;;;2.78;2.08;;;;;;;;;;5114815;27;20031;-82
2022/06/27 03:15:01;;;;;;;2.00;1.70;;;;;;;;;;5130641;27;20087;-83
2022/06/27 03:17:27;;;;;;;2.25;1.70;;;;;;;;;;5133503;27;20031;-83
2022/06/27 03:19:52;;;;;;;2.50;2.13;;;;;;;;;;5114411;27;20030;-83
2022/06/27 03:22:18;;;;;;;1.83;1.70;;;;;;;;;;5131522;27;20049;-86
2022/06/27 03:24:44;;;;;;;2.38;1.77;;;;;;;;;;5113146;27;20028;-83
2022/06/27 03:27:10;;;;;;;2.30;2.00;;;;;;;;;;5132992;27;20023;-84
2022/06/27 03:29:36;;;;;;;2.45;2.00;;;;;;;;;;5132990;27;20038;-81
2022/06/27 03:32:03;;;;;;;4.35;2.10;;;;;;;;;;5133027;27;20031;-86
2022/06/27 03:34:28;;;;;;;1.95;1.75;;;;;;;;;;5132736;27;20508;-82
2022/06/27 03:36:53;;;;;;;2.05;1.85;;;;;;;;;;5132655;27;20027;-84
2022/06/27 03:39:19;;;;;;;2.10;1.67;;;;;;;;;;5132767;27;20042;-84
2022/06/27 03:41:44;;;;;;;2.70;1.77;;;;;;;;;;5132865;27;20038;-82
2022/06/27 03:44:11;;;;;;;2.67;2.42;;;;;;;;;;5132806;27;20019;-83
2022/06/27 03:46:37;;;;;;;3.47;1.75;;;;;;;;;;5133042;27;20114;-82
2022/06/27 03:51:47;;;;;;;2.72;1.95;;;;;;;;;;5132509;27;20034;-82
2022/06/27 03:54:13;;;;;;;3.03;2.55;;;;;;;;;;5132340;27;20121;-82
2022/06/27 03:56:38;;;;;;;2.00;1.80;;;;;;;;;;5132649;27;20057;-82
2022/06/27 03:59:04;;;;;;;2.40;2.20;;;;;;;;;;5132217;27;20609;-83
2022/06/27 04:01:29;;;;;;;2.92;2.05;;;;;;;;;;5132547;27;20383;-84
2022/06/27 04:03:54;;;;;;;2.70;2.03;;;;;;;;;;5132182;27;20088;-83
2022/06/27 04:06:20;;;;;;;2.30;2.10;;;;;;;;;;5132281;27;20055;-81
2022/06/27 04:08:45;;;;;;;2.30;2.10;;;;;;;;;;5132068;27;20023;-84
2022/06/27 04:11:11;;;;;;;3.03;2.45;;;;;;;;;;5132633;27;20030;-81
2022/06/27 04:13:36;;;;;;;3.45;2.28;;;;;;;;;;5113343;27;20054;-82
2022/06/27 04:16:02;;;;;;;2.90;2.40;;;;;;;;;;5131930;27;20031;-85
2022/06/27 04:18:27;;;;;;;3.33;2.88;;;;;;;;;;5131294;27;20051;-84
2022/06/27 04:20:53;;;;;;;3.35;2.72;;;;;;;;;;5129106;27;20028;-85
2022/06/27 04:23:18;;;;;;;3.17;2.50;;;;;;;;;;5127830;27;20023;-83
2022/06/27 04:25:44;;;;;;;3.03;2.60;;;;;;;;;;5131361;27;20038;-83
2022/06/27 04:28:09;;;;;;;2.80;2.53;;;;;;;;;;5107939;28;20037;-85
2022/06/27 04:30:35;;;;;;;2.70;2.25;;;;;;;;;;5131917;27;20368;-83
2022/06/27 04:33:01;;;;;;;2.92;2.47;;;;;;;;;;5126368;27;20101;-85
2022/06/27 04:35:27;;;;;;;2.33;2.13;;;;;;;;;;5127262;27;20106;-86
2022/06/27 04:37:53;;;;;;;2.53;2.30;;;;;;;;;;5130240;27;20594;-84
2022/06/27 04:40:20;;;;;;;2.53;2.13;;;;;;;;;;5109983;27;20019;-83
2022/06/27 04:42:49;;;;;;;2.10;1.90;;;;;;;;;;5130716;27;20035;-84
2022/06/27 04:45:15;;;;;;;2.75;2.05;;;;;;;;;;5129000;27;20368;-85
2022/06/27 04:47:41;;;;;;;2.55;2.05;;;;;;;;;;5130067;27;20029;-83
2022/06/27 04:50:12;;;;;;;2.97;1.98;;;;;;;;;;5108916;28;20072;-82
2022/06/27 04:52:39;;;;;;;3.95;2.78;;;;;;;;;;5130475;28;20463;-82
2022/06/27 04:55:09;;;;;;;3.83;3.05;;;;;;;;;;5130691;28;20063;-82
2022/06/27 04:57:38;;;;;;;;;;;;;;;;;;5112393;28;20053;-82
2022/06/27 05:00:07;;;;;;;5.47;3.22;;;;;;;;;;5131542;28;19919;-82
2022/06/27 05:02:32;;;;;;;3.93;3.30;;;;;;;;;;5131294;28;20102;-82
2022/06/27 05:04:58;;;;;;;4.68;3.50;;;;;;;;;;5110313;28;20314;-81
2022/06/27 05:07:23;;;;;;;3.80;3.50;;;;;;;;;;5127285;28;20046;-83
2022/06/27 05:09:52;;;;;;;4.43;3.55;;;;;;;;;;5131627;28;20031;-84
2022/06/27 05:12:19;;;;;;;4.45;3.90;;;;;;;;;;5131141;28;20019;-83
2022/06/27 05:14:44;;;;;;;4.00;3.63;;;;;;;;;;5129769;28;20027;-82
2022/06/27 05:17:10;;;;;;;4.10;3.70;;;;;;;;;;5112596;28;20034;-83
2022/06/27 05:19:35;;;;;;;6.05;4.00;;;;;;;;;;5130348;28;20045;-83
2022/06/27 05:22:01;;;;;;;5.68;4.07;;;;;;;;;;5131379;28;20098;-83
2022/06/27 05:24:26;;;;;;;4.35;3.95;;;;;;;;;;5127584;28;20068;-87
2022/06/27 05:26:53;;;;;;;3.92;3.60;;;;;;;;;;5130958;28;20035;-84
2022/06/27 05:29:20;;;;;;;4.57;4.18;;;;;;;;;;5113222;28;20031;-82
2022/06/27 05:31:45;;;;;;;4.38;3.97;;;;;;;;;;5131236;28;20060;-82
2022/06/27 05:34:11;;;;;;;4.22;3.80;;;;;;;;;;5131755;28;20028;-86
2022/06/27 05:36:37;;;;;;;4.45;3.60;;;;;;;;;;5131299;28;20031;-84
2022/06/27 05:39:03;;;;;;;4.43;4.00;;;;;;;;;;5134146;27;20023;-86
2022/06/27 05:41:29;;;;;;;3.25;2.95;;;;;;;;;;5134766;27;20023;-83
2022/06/27 05:43:55;;;;;;;4.65;3.08;;;;;;;;;;5111672;27;20516;-85
2022/06/27 05:46:20;;;;;;;3.55;3.13;;;;;;;;;;5133862;27;20015;-87
2022/06/27 05:48:46;;;;;;;4.18;3.60;;;;;;;;;;5128795;27;20032;-83
2022/06/27 05:51:12;;;;;;;4.40;3.83;;;;;;;;;;5134362;27;20115;-82
2022/06/27 05:53:38;;;;;;;4.50;3.83;;;;;;;;;;5131225;27;20055;-82
2022/06/27 05:56:05;;;;;;;4.63;3.40;;;;;;;;;;5132003;27;20092;-84
2022/06/27 05:58:31;;;;;;;4.10;3.70;;;;;;;;;;5131675;27;20026;-85
2022/06/27 06:00:57;;;;;;;5.20;3.55;;;;;;;;;;5130253;27;20031;-82
2022/06/27 06:03:22;;;;;;;4.78;3.92;;;;;;;;;;5134909;27;20470;-83
2022/06/27 06:05:48;;;;;;;5.38;4.35;;;;;;;;;;5130376;27;20027;-81
2022/06/27 06:08:14;;;;;;;4.57;3.60;;;;;;;;;;5132011;27;20023;-82
2022/06/27 06:10:40;;;;;;;4.78;3.75;;;;;;;;;;5128069;27;20085;-82
2022/06/27 06:13:07;;;;;;;5.13;3.58;;;;;;;;;;5133839;27;20023;-84
2022/06/27 06:15:33;;;;;;;3.88;3.28;;;;;;;;;;5132024;27;20043;-81
2022/06/27 06:18:01;;;;;;;4.38;3.13;;;;;;;;;;5130656;27;20127;-82
2022/06/27 06:20:28;;;;;;;3.63;2.63;;;;;;;;;;5131662;27;20125;-83
2022/06/27 06:22:53;;;;;;;4.65;2.58;;;;;;;;;;5133056;27;20019;-83
2022/06/27 06:25:19;;;;;;;2.65;2.42;;;;;;;;;;5131808;27;20507;-82
2022/06/27 06:27:45;;;;;;;5.70;2.03;;;;;;;;;;5132659;27;20118;-83
2022/06/27 06:30:10;;;;;;;2.70;2.42;;;;;;;;;;5133496;27;20034;-84
2022/06/27 06:32:36;;;;;;;3.22;2.47;;;;;;;;;;5129469;27;20043;-84
2022/06/27 06:35:02;;;;;;;3.20;2.17;;;;;;;;;;5131035;27;20038;-83
2022/06/27 06:37:29;;;;;;;5.03;2.53;;;;;;;;;;5133381;27;20038;-82
2022/06/27 06:39:54;;;;;;;3.03;2.33;;;;;;;;;;5111883;27;20083;-83
2022/06/27 06:42:20;;;;;;;3.40;2.72;;;;;;;;;;5128323;27;20023;-83
2022/06/27 06:44:46;;;;;;;6.25;3.20;;;;;;;;;;5132674;27;20026;-80
2022/06/27 06:47:12;;;;;;;3.28;2.97;;;;;;;;;;5129743;27;20425;-82
2022/06/27 06:49:44;;;;;;;3.35;2.78;;;;;;;;;;5132337;27;20026;-82
2022/06/27 06:52:10;;;;;;;3.25;2.90;;;;;;;;;;5131311;27;20737;-80
2022/06/27 06:54:36;;;;;;;4.68;2.55;;;;;;;;;;5131979;27;20091;-80
2022/06/27 06:57:02;;;;;;;3.58;2.50;;;;;;;;;;5128710;27;20467;-80
2022/06/27 06:59:28;;;;;;;3.20;2.17;;;;;;;;;;5132562;27;20027;-80
2022/06/27 07:01:53;;;;;;;3.88;2.20;;;;;;;;;;5132580;27;20019;-81
2022/06/27 07:04:19;;;;;;;3.22;2.20;;;;;;;;;;5132911;27;20027;-79
2022/06/27 07:06:45;;;;;;;2.67;2.40;;;;;;;;;;5129779;27;20715;-80
2022/06/27 07:09:11;;;;;;;2.70;2.28;;;;;;;;;;5129876;27;20351;-79
2022/06/27 07:11:37;;;;;;;2.47;1.95;;;;;;;;;;5131700;27;20030;-82
2022/06/27 07:14:03;;;;;;;4.47;2.60;;;;;;;;;;5131989;27;20027;-83
2022/06/27 07:16:29;;;;;;;7.68;6.97;;;;;;;;;;5128006;27;20031;-82
2022/06/27 07:18:55;;;;;;;2.35;2.15;;;;;;;;;;5108650;27;20019;-84
2022/06/27 07:21:21;;;;;;;2.50;2.30;;;;;;;;;;5131089;27;20039;-85
2022/06/27 07:23:48;;;;;;;3.58;2.53;;;;;;;;;;5128599;27;20768;-82
2022/06/27 07:26:17;;;;;;;3.15;2.08;;;;;;;;;;5131891;27;20440;-80
2022/06/27 07:28:44;;;;;;;2.70;2.15;;;;;;;;;;5129775;27;20027;-81
2022/06/27 07:31:11;;;;;;;4.72;2.47;;;;;;;;;;5132984;27;20033;-84
2022/06/27 07:33:39;;;;;;;2.38;2.00;;;;;;;;;;5132214;27;20039;-83
2022/06/27 07:36:06;;;;;;;6.72;2.20;;;;;;;;;;5128253;27;20034;-81
2022/06/27 07:38:38;;;;;;;4.43;2.70;;;;;;;;;;5132579;27;20387;-81
2022/06/27 07:41:07;;;;;;;3.83;2.58;;;;;;;;;;5130455;27;20034;-81
2022/06/27 07:43:34;;;;;;;4.07;2.53;;;;;;;;;;5130458;27;20034;-83
2022/06/27 07:46:01;;;;;;;2.80;2.60;;;;;;;;;;5129585;27;20287;-80
2022/06/27 07:48:28;;;;;;;3.83;2.63;;;;;;;;;;5130214;27;20024;-82
2022/06/27 07:50:55;;;;;;;3.17;2.22;;;;;;;;;;5128459;27;20118;-81
2022/06/27 07:53:21;;;;;;;2.50;2.30;;;;;;;;;;5128802;27;20551;-82
2022/06/27 07:55:50;;;;;;;3.15;2.13;;;;;;;;;;5111216;27;20164;-84
2022/06/27 07:58:16;;;;;;;2.70;1.90;;;;;;;;;;5131720;27;20494;-84
2022/06/27 08:00:44;;;;;;;2.92;2.38;;;;;;;;;;5113147;27;20022;-83
2022/06/27 08:05:56;;;;;;;3.08;2.00;;;;;;;;;;5131784;27;20099;-83
2022/06/27 08:08:23;;;;;;;3.00;2.00;;;;;;;;;;5130608;27;20030;-86
2022/06/27 08:10:49;;;;;;;3.00;1.80;;;;;;;;;;5113457;27;20387;-84
2022/06/27 08:13:15;;;;;;;2.00;1.80;;;;;;;;;;5129723;27;20584;-82
2022/06/27 08:15:41;;;;;;;1.70;1.60;;;;;;;;;;5112592;27;20110;-82
2022/06/27 08:18:08;;;;;;;1.98;1.60;;;;;;;;;;5131153;27;20034;-83
2022/06/27 08:20:35;;;;;;;2.33;1.65;;;;;;;;;;5131153;27;20581;-84
2022/06/27 08:23:03;;;;;;;2.40;2.08;;;;;;;;;;5111269;27;20410;-85
2022/06/27 08:25:29;;;;;;;2.17;1.98;;;;;;;;;;5132237;27;20015;-83
2022/06/27 08:27:55;;;;;;;3.67;2.05;;;;;;;;;;5132460;27;20054;-83
2022/06/27 08:30:25;;;;;;;2.10;1.90;;;;;;;;;;5111777;27;20019;-85
2022/06/27 08:32:54;;;;;;;;;;;;;;;;;;5129544;27;20494;-85
2022/06/27 08:35:20;;;;;;;2.77;1.97;;;;;;;;;;5112060;27;19938;-85
2022/06/27 08:37:46;;;;;;;3.63;2.00;;;;;;;;;;5129459;27;20110;-82
2022/06/27 08:40:14;;;;;;;2.08;1.88;;;;;;;;;;5129925;27;20110;-83
2022/06/27 08:42:40;;;;;;;2.28;1.60;;;;;;;;;;5131548;27;20119;-83
2022/06/27 08:45:08;;;;;;;1.95;1.58;;;;;;;;;;5131110;27;20098;-83
2022/06/27 08:47:34;;;;;;;2.92;1.90;;;;;;;;;;5131389;27;20019;-84
2022/06/27 08:50:01;;;;;;;2.30;1.80;;;;;;;;;;5129617;27;20364;-83
2022/06/27 08:52:28;;;;;;;1.70;1.60;;;;;;;;;;5131144;28;20065;-83
2022/06/27 08:54:56;;;;;;;1.92;1.60;;;;;;;;;;5128843;28;20058;-83
2022/06/27 08:57:22;;;;;;;2.42;1.38;;;;;;;;;;5111510;28;20030;-84
2022/06/27 08:59:53;;;;;;;1.60;1.50;;;;;;;;;;5126769;28;20031;-84
2022/06/27 09:02:23;;;;;;;2.42;1.60;;;;;;;;;;5114630;28;20027;-84
2022/06/27 09:04:57;;;;;;;1.90;1.70;;;;;;;;;;5129970;28;20035;-83
2022/06/27 09:07:23;;;;;;;3.08;1.80;;;;;;;;;;5126063;27;20046;-83
2022/06/27 09:09:49;;;;;;;2.28;1.40;;;;;;;;;;5109977;28;20475;-85
2022/06/27 09:12:15;;;;;;;2.35;1.40;;;;;;;;;;5121932;27;20141;-83
2022/06/27 09:14:42;;;;;;;1.67;1.58;;;;;;;;;;5110003;27;20353;-85
2022/06/27 09:17:12;;;;;;;1.95;1.60;;;;;;;;;;5113114;27;20030;-84
2022/06/27 09:19:50;;;;;;;1.60;1.50;;;;;;;;;;5128327;27;20031;-83
2022/06/27 09:22:17;;;;;;;1.73;1.63;;;;;;;;;;5123772;27;20032;-85
2022/06/27 09:25:12;;;;;;;3.85;1.50;;;;;;;;;;5129763;27;20035;-83
2022/06/27 09:27:52;;;;;;;2.00;1.40;;;;;;;;;;5127956;27;20176;-82
2022/06/27 09:30:18;;;;;;;2.13;1.40;;;;;;;;;;5129653;27;20106;-84
2022/06/27 09:32:43;;;;;;;1.70;1.60;;;;;;;;;;5111258;27;20027;-82
2022/06/27 09:35:22;;;;;;;3.42;1.50;;;;;;;;;;5132202;27;20054;-84
2022/06/27 09:37:53;;;;;;;2.63;1.60;;;;;;;;;;5130070;27;20023;-84
2022/06/27 09:40:22;;;;;;;2.78;1.60;;;;;;;;;;5128315;27;20061;-81
2022/06/27 09:42:50;;;;;;;2.28;1.73;;;;;;;;;;5132027;27;20031;-83
2022/06/27 09:45:17;;;;;;;3.03;1.67;;;;;;;;;;5129883;27;20035;-81
2022/06/27 09:47:43;;;;;;;2.92;1.83;;;;;;;;;;5126380;27;20027;-81
2022/06/27 09:50:09;;;;;;;2.20;1.90;;;;;;;;;;5130533;27;20027;-82
2022/06/27 09:52:36;;;;;;;2.42;1.70;;;;;;;;;;5131584;27;20022;-82
2022/06/27 09:55:02;;;;;;;1.60;1.50;;;;;;;;;;5113392;27;20039;-82
2022/06/27 09:57:28;;;;;;;1.85;1.60;;;;;;;;;;5133530;27;20840;-81
2022/06/27 09:59:54;;;;;;;2.30;1.70;;;;;;;;;;5131380;27;20030;-83
2022/06/27 10:02:22;;;;;;;2.20;1.60;;;;;;;;;;5132597;27;20027;-82
2022/06/27 10:04:48;;;;;;;2.20;1.70;;;;;;;;;;5118528;27;20023;-82
2022/06/27 10:07:16;;;;;;;2.08;1.50;;;;;;;;;;5139888;27;20027;-81
2022/06/27 10:09:42;;;;;;;1.77;1.30;;;;;;;;;;5114705;27;20049;-82
2022/06/27 10:12:21;;;;;;;2.40;1.42;;;;;;;;;;5133014;27;20378;-80
2022/06/27 10:14:46;;;;;;;2.57;1.57;;;;;;;;;;5131573;27;20465;-82
2022/06/27 10:17:15;;;;;;;1.50;1.40;;;;;;;;;;5133628;27;20066;-82
2022/06/27 10:20:05;;;;;;;3.30;1.60;;;;;;;;;;5131743;27;20023;-82
2022/06/27 10:22:31;;;;;;;;;;;;;;;;;;5133674;27;20026;-80
2022/06/27 10:25:25;;;;;;;1.65;1.23;;;;;;;;;;5132875;27;19994;-81
2022/06/27 10:28:12;;;;;;;1.52;1.40;;;;;;;;;;5134208;27;20039;-83
2022/06/27 10:30:41;;;;;;;2.50;1.25;;;;;;;;;;5117006;27;20039;-81
2022/06/27 10:33:19;;;;;;;1.77;1.40;;;;;;;;;;5133478;27;20023;-80
2022/06/27 10:36:02;;;;;;;1.77;1.40;;;;;;;;;;5131724;27;20058;-80
2022/06/27 10:38:43;;;;;;;4.60;2.17;;;;;;;;;;5133823;27;20047;-81
2022/06/27 10:41:11;;;;;;;4.75;2.30;;;;;;;;;;5113475;27;20027;-81
2022/06/27 10:43:39;;;;;;;2.63;1.77;;;;;;;;;;5133338;27;20027;-81
2022/06/27 10:46:13;;;;;;;1.63;1.15;;;;;;;;;;5133781;27;20083;-80
2022/06/27 10:48:52;;;;;;;1.45;1.33;;;;;;;;;;5133461;27;20026;-80
2022/06/27 10:51:27;;;;;;;3.58;1.75;;;;;;;;;;5106065;27;20066;-82
2022/06/27 10:54:09;;;;;;;4.38;1.70;;;;;;;;;;5106534;27;20051;-83
2022/06/27 10:56:39;;;;;;;2.20;1.70;;;;;;;;;;5129944;27;20019;-83
2022/06/27 10:59:27;;;;;;;2.10;1.30;;;;;;;;;;5128944;27;20035;-84
2022/06/27 11:01:58;;;;;;;2.13;1.45;;;;;;;;;;5114088;27;20061;-83
2022/06/27 11:04:24;;;;;;;2.85;1.67;;;;;;;;;;5130305;27;20444;-82
2022/06/27 11:06:56;;;;;;;2.00;1.77;;;;;;;;;;5127696;27;20114;-83
2022/06/27 11:09:43;;;;;;;4.20;1.70;;;;;;;;;;5126551;27;20027;-82
2022/06/27 11:12:10;;;;;;;1.92;1.48;;;;;;;;;;5126055;27;20023;-83
2022/06/27 11:14:48;;;;;;;1.38;1.17;;;;;;;;;;5109232;27;20043;-83
2022/06/27 11:17:46;;;;;;;1.30;1.20;;;;;;;;;;5131242;27;20118;-84
2022/06/27 11:20:16;;;;;;;2.17;1.60;;;;;;;;;;5084079;27;20487;-82
2022/06/27 11:22:43;;;;;;;1.75;1.27;;;;;;;;;;5128754;27;20027;-82
2022/06/27 11:25:09;;;;;;;1.90;1.58;;;;;;;;;;5124891;27;20475;-81
2022/06/27 11:27:56;;;;;;;1.83;1.50;;;;;;;;;;5126804;27;20118;-83
2022/06/27 11:33:29;;;;;;;1.60;1.23;;;;;;;;;;5131111;27;20030;-82
2022/06/27 11:35:55;;;;;;;2.45;1.42;;;;;;;;;;5131824;27;20045;-82
2022/06/27 11:38:40;;;;;;;2.15;1.15;;;;;;;;;;5111613;27;20494;-79
2022/06/27 11:41:11;;;;;;;1.30;1.20;;;;;;;;;;5129496;27;20027;-81
2022/06/27 11:43:46;;;;;;;2.53;1.30;;;;;;;;;;5130140;27;20045;-82
2022/06/27 11:46:51;;;;;;;2.42;1.30;;;;;;;;;;5131876;27;20466;-80
2022/06/27 11:49:27;;;;;;;2.17;1.33;;;;;;;;;;5102724;27;20035;-83
2022/06/27 11:52:01;;;;;;;1.30;1.20;;;;;;;;;;5130719;27;20027;-82
2022/06/27 11:54:39;;;;;;;1.38;1.20;;;;;;;;;;5130140;27;20035;-82
2022/06/27 11:57:24;;;;;;;1.58;1.30;;;;;;;;;;5111961;27;20030;-81
2022/06/27 11:59:52;;;;;;;1.38;1.13;;;;;;;;;;5128414;27;20088;-80
2022/06/27 12:02:35;;;;;;;1.27;1.10;;;;;;;;;;5113159;27;20106;-82
2022/06/27 12:05:21;;;;;;;1.40;1.10;;;;;;;;;;5124064;27;20034;-81
2022/06/27 12:07:55;;;;;;;1.30;1.08;;;;;;;;;;5123971;27;20039;-84
2022/06/27 12:10:39;;;;;;;1.73;1.15;;;;;;;;;;5106298;27;20107;-82
2022/06/27 12:13:08;;;;;;;1.88;0.80;;;;;;;;;;5127482;27;20050;-82
2022/06/27 12:15:35;;;;;;;2.58;1.13;;;;;;;;;;5108792;27;20033;-82
2022/06/27 12:18:02;;;;;;;1.02;0.93;;;;;;;;;;5129219;27;20087;-80
2022/06/27 12:20:29;;;;;;;1.20;1.00;;;;;;;;;;5129822;27;20422;-84
2022/06/27 12:22:55;;;;;;;1.23;0.90;;;;;;;;;;5129268;27;20038;-82
2022/06/27 12:25:21;;;;;;;1.90;0.93;;;;;;;;;;5127842;27;20019;-81
2022/06/27 12:27:47;;;;;;;0.95;0.93;;;;;;;;;;5128967;27;20069;-81
2022/06/27 12:30:14;;;;;;;1.77;1.17;;;;;;;;;;5129364;27;20138;-82
2022/06/27 12:32:40;;;;;;;2.45;1.17;;;;;;;;;;5128098;27;20079;-82
2022/06/27 12:35:06;;;;;;;2.17;1.30;;;;;;;;;;5124144;27;20062;-81
2022/06/27 12:37:35;;;;;;;1.20;1.10;;;;;;;;;;5126359;27;20028;-81
2022/06/27 12:40:02;;;;;;;1.40;1.13;;;;;;;;;;5107972;27;20055;-81
2022/06/27 12:42:28;;;;;;;0.90;0.90;;;;;;;;;;5127282;27;20057;-81
2022/06/27 12:44:54;;;;;;;1.20;0.90;;;;;;;;;;5111783;28;20050;-80
2022/06/27 12:47:20;;;;;;;2.40;1.00;;;;;;;;;;5128321;27;20019;-82
2022/06/27 12:49:45;;;;;;;1.27;1.17;;;;;;;;;;5128749;27;20411;-82
2022/06/27 12:52:12;;;;;;;1.88;1.30;;;;;;;;;;5127914;27;20037;-82
2022/06/27 12:54:38;;;;;;;1.30;1.20;;;;;;;;;;5109900;28;20495;-80
2022/06/27 12:57:05;;;;;;;1.95;1.40;;;;;;;;;;5112223;28;20071;-80
2022/06/27 12:59:30;;;;;;;1.20;1.10;;;;;;;;;;5129182;28;20027;-81
2022/06/27 13:01:56;;;;;;;1.30;1.10;;;;;;;;;;5127633;27;20105;-80
2022/06/27 13:04:21;;;;;;;1.20;1.10;;;;;;;;;;5128049;27;20431;-79
2022/06/27 13:06:47;;;;;;;1.65;1.10;;;;;;;;;;5129742;27;20031;-80
2022/06/27 13:09:12;;;;;;;3.15;1.15;;;;;;;;;;5130355;28;20110;-82
2022/06/27 13:11:38;;;;;;;1.92;1.30;;;;;;;;;;5128306;27;20055;-80
2022/06/27 13:14:03;;;;;;;3.03;1.30;;;;;;;;;;5123306;27;20072;-80
2022/06/27 13:16:29;;;;;;;1.23;1.10;;;;;;;;;;5124644;28;20023;-80
2022/06/27 13:18:54;;;;;;;1.50;1.13;;;;;;;;;;5123841;28;20027;-81
2022/06/27 13:21:19;;;;;;;2.60;1.25;;;;;;;;;;5124884;28;20046;-80
2022/06/27 13:23:45;;;;;;;1.98;1.17;;;;;;;;;;5126159;28;20026;-82
2022/06/27 13:26:10;;;;;;;1.27;1.17;;;;;;;;;;5126452;28;20544;-81
2022/06/27 13:28:36;;;;;;;2.17;1.45;;;;;;;;;;5124636;28;20080;-84
2022/06/27 13:31:01;;;;;;;2.30;1.33;;;;;;;;;;5126151;28;20028;-83
2022/06/27 13:33:27;;;;;;;1.67;1.30;;;;;;;;;;5123663;28;20024;-83
2022/06/27 13:35:52;;;;;;;2.45;1.40;;;;;;;;;;5124828;28;20057;-83
2022/06/27 13:38:18;;;;;;;2.15;1.33;;;;;;;;;;5111682;28;20125;-82
2022/06/27 13:40:43;;;;;;;1.55;1.33;;;;;;;;;;5129362;28;20037;-81
2022/06/27 13:43:09;;;;;;;2.13;1.33;;;;;;;;;;5127047;28;20023;-82
2022/06/27 13:45:34;;;;;;;1.67;1.10;;;;;;;;;;5127956;28;20098;-83
2022/06/27 13:48:01;;;;;;;4.22;1.50;;;;;;;;;;5126450;28;20020;-78
2022/06/27 13:50:28;;;;;;;1.70;1.20;;;;;;;;;;5122342;28;20044;-81
2022/06/27 13:52:54;;;;;;;2.00;1.10;;;;;;;;;;5108007;28;20394;-85
2022/06/27 13:55:19;;;;;;;2.25;1.50;;;;;;;;;;5081941;28;20036;-80
2022/06/27 13:57:45;;;;;;;2.03;1.20;;;;;;;;;;5103081;28;20069;-81
2022/06/27 14:00:11;;;;;;;1.60;1.20;;;;;;;;;;5110521;28;20077;-83
2022/06/27 14:02:37;;;;;;;1.83;1.40;;;;;;;;;;5113541;28;20084;-81
2022/06/27 14:05:04;;;;;;;1.40;1.20;;;;;;;;;;5108074;28;20015;-81
2022/06/27 14:07:36;;;;;;;1.15;1.08;;;;;;;;;;5100439;28;20027;-81
2022/06/27 14:10:02;;;;;;;1.48;1.10;;;;;;;;;;5112278;28;20102;-81
2022/06/27 14:12:28;;;;;;;1.70;1.17;;;;;;;;;;5104414;28;20047;-81
2022/06/27 14:14:54;;;;;;;2.20;1.10;;;;;;;;;;5102744;28;20439;-81
2022/06/27 14:17:20;;;;;;;1.20;1.10;;;;;;;;;;5093843;28;20031;-81
2022/06/27 14:19:45;;;;;;;1.40;1.30;;;;;;;;;;5092374;28;20027;-83
2022/06/27 14:22:10;;;;;;;2.35;1.10;;;;;;;;;;5091042;28;20063;-82
2022/06/27 14:24:36;;;;;;;1.48;1.13;;;;;;;;;;5108190;28;20016;-81
2022/06/27 14:27:02;;;;;;;1.55;1.30;;;;;;;;;;5077490;28;20019;-81
2022/06/27 14:29:28;;;;;;;1.48;1.30;;;;;;;;;;5081588;28;20495;-83
2022/06/27 14:31:54;;;;;;;3.00;1.45;;;;;;;;;;5099666;28;20027;-82
2022/06/27 14:34:22;;;;;;;4.05;1.10;;;;;;;;;;5101939;28;20490;-81
2022/06/27 14:36:48;;;;;;;1.33;1.10;;;;;;;;;;5093671;28;20478;-83
2022/06/27 14:39:13;;;;;;;1.25;1.00;;;;;;;;;;5104461;28;20031;-83
2022/06/27 14:41:43;;;;;;;1.90;1.08;;;;;;;;;;5101983;28;20038;-82
2022/06/27 14:44:09;;;;;;;1.98;1.20;;;;;;;;;;5088179;28;20095;-82
2022/06/27 14:46:35;;;;;;;1.50;1.10;;;;;;;;;;5097328;28;20066;-81
2022/06/27 14:49:00;;;;;;;2.35;1.70;;;;;;;;;;5100797;28;20055;-83
2022/06/27 14:51:27;;;;;;;3.03;1.65;;;;;;;;;;5093959;28;20424;-81
2022/06/27 14:53:52;;;;;;;1.63;1.20;;;;;;;;;;5093196;28;20048;-82
2022/06/27 14:56:17;;;;;;;1.48;1.00;;;;;;;;;;5090501;28;20034;-83